Time;durP1;ratioP1;P1;durP2;ratioP2;P2;SDS_P1;SDS_P2;PMS_P1;PMS_P2;Temp;Humidity;BMP_temperature;BMP_pressure;BME280_temperature;BME280_humidity;BME280_pressure;Samples;Min_cycle;Max_cycle;Signal;HPM_P1;HPM_P2
2021/01/19 00:00:14;;;;;;;19.50;14.33;;;;;;;5.23;100.00;100795.31;5054617;28;20640;-70
2021/01/19 00:02:39;;;;;;;19.87;14.93;;;;;;;5.22;100.00;100788.31;5071784;28;20176;-70
2021/01/19 00:05:06;;;;;;;19.23;14.83;;;;;;;5.14;100.00;100783.25;5087980;28;20898;-70
2021/01/19 00:07:32;;;;;;;19.47;14.73;;;;;;;5.14;100.00;100775.19;5054426;28;20238;-71
2021/01/19 00:09:59;;;;;;;20.40;15.20;;;;;;;5.23;100.00;100776.47;5021903;28;20223;-70
2021/01/19 00:12:25;;;;;;;20.93;15.27;;;;;;;5.32;100.00;100772.38;5066191;28;20301;-70
2021/01/19 00:14:51;;;;;;;19.97;15.10;;;;;;;5.24;100.00;100770.06;5071214;28;20220;-70
2021/01/19 00:17:17;;;;;;;21.33;15.33;;;;;;;5.12;100.00;100763.84;5070905;28;20223;-71
2021/01/19 00:19:43;;;;;;;21.87;15.43;;;;;;;5.22;100.00;100761.41;5071544;28;20705;-70
2021/01/19 00:22:08;;;;;;;21.00;15.50;;;;;;;5.20;100.00;100752.72;5071046;28;20242;-70
2021/01/19 00:24:37;;;;;;;18.07;14.23;;;;;;;5.14;100.00;100761.72;5070895;28;20190;-70
2021/01/19 00:27:05;;;;;;;20.63;15.50;;;;;;;5.03;100.00;100749.09;5070771;28;20237;-70
2021/01/19 00:29:30;;;;;;;17.77;14.77;;;;;;;5.14;100.00;100753.66;5071080;28;20246;-70
2021/01/19 00:31:58;;;;;;;19.90;15.73;;;;;;;5.10;100.00;100751.69;5053699;28;20218;-70
2021/01/19 00:34:23;;;;;;;21.30;16.83;;;;;;;5.06;100.00;100740.56;5053979;28;20188;-70
2021/01/19 00:36:50;;;;;;;22.90;15.83;;;;;;;5.11;100.00;100748.75;5070306;28;20317;-70
2021/01/19 00:39:15;;;;;;;20.37;15.30;;;;;;;4.99;100.00;100739.84;5054373;28;20266;-70
2021/01/19 00:41:46;;;;;;;19.87;15.23;;;;;;;5.00;100.00;100746.88;5053958;28;20597;-70
2021/01/19 00:44:12;;;;;;;23.37;17.73;;;;;;;5.10;100.00;100741.72;5090334;28;20178;-70
2021/01/19 00:46:38;;;;;;;35.93;23.67;;;;;;;5.20;100.00;100741.97;5090107;28;20611;-71
2021/01/19 00:49:03;;;;;;;29.53;20.50;;;;;;;5.17;100.00;100739.72;5073945;28;20187;-70
2021/01/19 00:51:35;;;;;;;52.23;31.50;;;;;;;5.05;100.00;100744.31;5073587;28;20768;-69
2021/01/19 00:54:02;;;;;;;31.67;20.77;;;;;;;5.05;100.00;100730.88;5057607;28;20206;-70
2021/01/19 00:56:41;;;;;;;42.73;26.13;;;;;;;5.06;100.00;100732.47;5073009;28;20242;-73
2021/01/19 00:59:10;;;;;;;42.07;25.97;;;;;;;5.10;100.00;100725.56;5090803;28;20178;-70
2021/01/19 01:01:43;;;;;;;46.23;28.47;;;;;;;5.04;100.00;100723.81;5073760;28;20222;-70
2021/01/19 01:04:09;;;;;;;36.00;23.50;;;;;;;5.06;100.00;100710.94;5074242;28;20254;-71
2021/01/19 01:06:39;;;;;;;26.83;17.67;;;;;;;5.11;100.00;100707.53;5056938;28;20225;-70
2021/01/19 01:09:05;;;;;;;24.53;16.93;;;;;;;5.00;100.00;100717.28;5057831;28;20198;-70
2021/01/19 01:11:40;;;;;;;24.23;17.00;;;;;;;4.96;100.00;100706.41;5056655;28;20239;-69
2021/01/19 01:14:09;;;;;;;25.60;17.77;;;;;;;4.96;100.00;100704.50;5089879;28;20182;-70
2021/01/19 01:16:35;;;;;;;23.27;16.60;;;;;;;5.05;100.00;100701.25;5056446;28;20225;-71
2021/01/19 01:19:01;;;;;;;58.10;34.00;;;;;;;5.10;100.00;100703.22;5073660;28;20243;-70
2021/01/19 01:21:30;;;;;;;57.77;34.70;;;;;;;5.08;100.00;100699.97;5089868;28;20217;-70
2021/01/19 01:23:55;;;;;;;30.00;20.50;;;;;;;5.14;100.00;100694.44;5090080;28;20186;-70
2021/01/19 01:26:23;;;;;;;24.83;17.67;;;;;;;5.04;100.00;100694.22;5055807;28;20226;-70
2021/01/19 01:28:48;;;;;;;26.27;17.47;;;;;;;5.32;100.00;100688.09;5090402;28;20556;-70
2021/01/19 01:31:21;;;;;;;25.07;18.57;;;;;;;5.23;100.00;100687.63;5072755;28;20234;-70
2021/01/19 01:33:49;;;;;;;25.90;17.00;;;;;;;5.26;100.00;100686.38;5057566;28;20191;-71
2021/01/19 01:36:15;;;;;;;24.03;17.53;;;;;;;5.11;100.00;100683.31;5088694;28;20218;-70
2021/01/19 01:38:41;;;;;;;24.23;17.40;;;;;;;5.07;100.00;100676.78;5055074;28;20263;-70
2021/01/19 01:41:15;;;;;;;27.67;19.53;;;;;;;5.12;100.00;100672.31;5072108;28;20226;-70
2021/01/19 01:43:45;;;;;;;42.87;27.93;;;;;;;5.11;100.00;100662.63;5089736;28;20182;-70
2021/01/19 01:46:12;;;;;;;37.63;24.83;;;;;;;5.20;100.00;100661.22;5035134;28;20352;-70
2021/01/19 01:48:45;;;;;;;27.07;19.07;;;;;;;5.01;100.00;100651.63;5036778;28;20628;-70
2021/01/19 01:51:11;;;;;;;23.67;17.50;;;;;;;5.27;100.00;100656.47;5053059;28;20231;-70
2021/01/19 01:53:39;;;;;;;27.70;18.93;;;;;;;5.27;100.00;100640.34;5037011;28;20175;-70
2021/01/19 01:56:05;;;;;;;26.37;18.43;;;;;;;5.05;100.00;100630.44;5052316;28;20256;-70
2021/01/19 01:58:31;;;;;;;23.63;18.43;;;;;;;5.16;100.00;100611.56;5069619;28;20197;-70
2021/01/19 02:00:57;;;;;;;23.10;17.40;;;;;;;5.04;100.00;100621.56;5035872;28;20215;-70
2021/01/19 02:03:22;;;;;;;24.90;19.10;;;;;;;5.02;100.00;100615.59;5053134;28;20171;-70
2021/01/19 02:05:50;;;;;;;26.93;18.17;;;;;;;5.10;100.00;100626.00;5048417;28;20215;-71
2021/01/19 02:08:31;;;;;;;24.70;19.23;;;;;;;5.04;100.00;100613.47;5016683;28;20194;-70
2021/01/19 02:11:02;;;;;;;24.87;18.17;;;;;;;5.11;100.00;100606.09;5058134;28;20237;-70
2021/01/19 02:13:36;;;;;;;24.87;17.83;;;;;;;5.24;100.00;100602.31;5084356;28;20178;-70
2021/01/19 02:16:18;;;;;;;22.50;17.73;;;;;;;5.16;100.00;100590.03;5064014;28;20223;-70
2021/01/19 02:19:38;;;;;;;24.57;18.67;;;;;;;4.97;100.00;100593.97;5036464;28;20191;-70
2021/01/19 02:22:38;;;;;;;24.00;17.43;;;;;;;5.07;100.00;100580.72;5028224;28;20227;-70
2021/01/19 02:25:42;;;;;;;23.60;17.13;;;;;;;4.91;100.00;100579.81;5092258;28;20191;-70
2021/01/19 02:28:16;;;;;;;24.83;17.80;;;;;;;4.93;100.00;100575.84;5069232;28;20210;-70
2021/01/19 02:30:54;;;;;;;24.87;17.40;;;;;;;5.02;100.00;100571.75;5074126;28;20317;-70
2021/01/19 02:33:34;;;;;;;23.27;18.07;;;;;;;5.07;100.00;100564.59;5090950;28;20174;-70
2021/01/19 02:36:19;;;;;;;23.80;18.00;;;;;;;5.03;100.00;100574.16;5064172;28;20722;-70
2021/01/19 02:39:03;;;;;;;22.17;17.13;;;;;;;5.09;100.00;100573.22;5036966;28;20187;-70
2021/01/19 02:41:31;;;;;;;23.73;18.00;;;;;;;5.02;100.00;100569.03;5055965;28;20224;-70
2021/01/19 02:44:18;;;;;;;24.33;19.03;;;;;;;5.14;100.00;100569.81;5022320;28;20179;-70
2021/01/19 02:46:44;;;;;;;24.40;17.83;;;;;;;5.21;100.00;100568.59;5065240;28;20253;-69
2021/01/19 02:49:12;;;;;;;25.23;18.47;;;;;;;5.19;100.00;100573.41;5089675;28;20232;-70
2021/01/19 02:51:38;;;;;;;25.57;18.83;;;;;;;5.11;100.00;100576.50;5068802;28;20283;-70
2021/01/19 02:54:03;;;;;;;25.47;18.83;;;;;;;5.36;100.00;100566.22;5069234;28;20628;-70
2021/01/19 02:56:37;;;;;;;25.63;20.63;;;;;;;5.14;100.00;100565.22;5036345;28;20300;-70
2021/01/19 02:59:27;;;;;;;27.23;18.63;;;;;;;5.26;100.00;100557.94;5072813;28;20278;-70
2021/01/19 03:01:57;;;;;;;24.50;18.77;;;;;;;5.27;100.00;100553.38;5055439;28;20306;-70
2021/01/19 03:04:24;;;;;;;23.97;19.80;;;;;;;5.15;100.00;100549.94;5039250;28;20194;-70
2021/01/19 03:06:52;;;;;;;26.70;21.03;;;;;;;5.21;100.00;100546.25;5055689;28;20238;-70
2021/01/19 03:09:23;;;;;;;24.17;19.43;;;;;;;5.48;100.00;100548.13;5072772;28;20570;-70
2021/01/19 03:11:48;;;;;;;24.23;19.47;;;;;;;5.36;100.00;100555.44;5039685;28;20280;-70
2021/01/19 03:14:14;;;;;;;25.50;19.40;;;;;;;5.43;100.00;100537.25;5035530;28;20187;-70
2021/01/19 03:16:39;;;;;;;21.97;18.30;;;;;;;5.24;100.00;100533.16;5035148;28;20701;-70
2021/01/19 03:19:05;;;;;;;25.63;19.40;;;;;;;5.22;100.00;100529.88;5019177;28;20552;-70
2021/01/19 03:21:31;;;;;;;24.57;19.57;;;;;;;5.24;100.00;100527.75;5018659;28;20215;-70
2021/01/19 03:23:56;;;;;;;24.70;19.70;;;;;;;5.33;100.00;100520.94;5035736;28;20206;-71
2021/01/19 03:26:22;;;;;;;24.80;19.30;;;;;;;5.28;100.00;100523.53;5018155;28;20235;-70
2021/01/19 03:28:50;;;;;;;22.23;17.97;;;;;;;5.24;100.00;100527.75;5052413;28;20278;-70
2021/01/19 03:31:16;;;;;;;25.50;19.13;;;;;;;5.21;100.00;100514.78;5051699;28;20716;-70
2021/01/19 03:33:41;;;;;;;27.73;20.30;;;;;;;5.21;100.00;100498.63;5052170;28;20179;-70
2021/01/19 03:36:07;;;;;;;26.23;18.83;;;;;;;5.26;100.00;100495.22;5034417;28;20227;-72
2021/01/19 03:38:32;;;;;;;28.13;18.83;;;;;;;5.29;100.00;100492.03;5035295;28;20184;-70
2021/01/19 03:40:58;;;;;;;24.80;18.97;;;;;;;5.37;100.00;100479.00;5064587;28;20213;-70
2021/01/19 03:43:26;;;;;;;24.07;18.33;;;;;;;5.43;100.00;100467.25;5039627;28;20758;-70
2021/01/19 03:45:51;;;;;;;24.37;18.77;;;;;;;5.36;100.00;100462.00;5054403;28;20234;-70
2021/01/19 03:48:17;;;;;;;24.37;18.40;;;;;;;5.25;100.00;100469.34;5049466;28;20190;-70
2021/01/19 03:50:43;;;;;;;25.37;18.50;;;;;;;5.32;100.00;100465.44;5066975;28;20230;-70
2021/01/19 03:53:11;;;;;;;24.77;18.57;;;;;;;5.38;100.00;100461.75;5057092;28;20191;-71
2021/01/19 03:55:39;;;;;;;22.10;17.70;;;;;;;5.33;100.00;100450.94;5054641;28;20218;-70
2021/01/19 03:58:04;;;;;;;21.30;18.27;;;;;;;5.32;100.00;100454.66;5039340;28;20248;-70
2021/01/19 04:00:30;;;;;;;21.77;17.17;;;;;;;5.40;100.00;100435.41;5038656;28;20227;-71
2021/01/19 04:02:55;;;;;;;20.33;17.57;;;;;;;5.30;100.00;100439.84;5055170;28;20192;-70
2021/01/19 04:05:21;;;;;;;20.13;16.90;;;;;;;5.27;100.00;100432.22;5037376;28;20654;-70
2021/01/19 04:07:47;;;;;;;23.50;17.90;;;;;;;5.23;100.00;100418.44;5054152;28;20639;-70
2021/01/19 04:10:13;;;;;;;21.80;17.50;;;;;;;5.07;100.00;100424.63;5054066;28;20202;-70
2021/01/19 04:12:44;;;;;;;23.30;17.07;;;;;;;5.34;100.00;100434.50;5078255;28;20194;-70
2021/01/19 04:15:12;;;;;;;21.17;16.90;;;;;;;5.34;100.00;100429.13;5053742;28;20183;-70
2021/01/19 04:17:41;;;;;;;24.37;18.10;;;;;;;5.27;100.00;100434.91;5072649;28;20644;-71
2021/01/19 04:20:11;;;;;;;22.67;17.20;;;;;;;5.29;100.00;100428.22;5054449;28;20175;-70
2021/01/19 04:22:37;;;;;;;22.83;17.00;;;;;;;5.34;100.00;100426.44;5038621;28;20183;-70
2021/01/19 04:25:04;;;;;;;21.60;18.17;;;;;;;5.22;100.00;100406.06;5070281;28;20232;-70
2021/01/19 04:27:30;;;;;;;22.07;16.97;;;;;;;5.32;100.00;100411.59;5050477;28;20314;-70
2021/01/19 04:29:58;;;;;;;21.40;17.40;;;;;;;5.26;100.00;100401.81;5017662;28;20199;-70
2021/01/19 04:32:23;;;;;;;21.33;17.57;;;;;;;5.30;100.00;100396.75;5069850;28;20748;-69
2021/01/19 04:34:49;;;;;;;22.63;17.60;;;;;;;5.21;100.00;100395.53;5086983;28;20236;-71
2021/01/19 04:37:17;;;;;;;22.13;17.40;;;;;;;5.28;100.00;100393.50;5053592;28;20238;-70
2021/01/19 04:39:43;;;;;;;21.17;17.43;;;;;;;5.35;100.00;100384.19;5071035;28;20205;-76
2021/01/19 04:42:09;;;;;;;22.70;18.20;;;;;;;5.14;100.00;100371.44;5046111;28;20305;-70
2021/01/19 04:44:35;;;;;;;21.00;17.33;;;;;;;5.20;100.00;100373.19;5070220;28;20245;-70
2021/01/19 04:47:00;;;;;;;19.87;17.23;;;;;;;5.19;100.00;100363.47;5032573;28;20222;-70
2021/01/19 04:49:26;;;;;;;20.53;16.40;;;;;;;5.26;100.00;100361.44;5054215;28;20210;-70
2021/01/19 04:51:56;;;;;;;20.13;16.20;;;;;;;5.20;100.00;100354.34;5068332;28;20722;-71
2021/01/19 04:54:22;;;;;;;19.57;17.37;;;;;;;5.09;100.00;100340.94;5073959;28;20205;-70
2021/01/19 04:56:53;;;;;;;22.20;17.43;;;;;;;5.12;100.00;100349.34;5039911;28;20703;-71
2021/01/19 04:59:26;;;;;;;21.23;17.47;;;;;;;4.97;100.00;100338.34;5074264;28;20190;-70
2021/01/19 05:02:12;;;;;;;24.20;17.93;;;;;;;5.18;100.00;100340.31;5074269;28;20218;-70
2021/01/19 05:04:51;;;;;;;19.93;16.97;;;;;;;5.00;100.00;100332.47;5058829;28;20274;-70
2021/01/19 05:07:33;;;;;;;22.43;17.53;;;;;;;5.12;100.00;100325.13;5072785;28;20702;-71
2021/01/19 05:10:19;;;;;;;19.80;16.37;;;;;;;5.14;100.00;100314.94;5071061;28;20241;-70
2021/01/19 05:12:45;;;;;;;19.33;16.20;;;;;;;5.13;100.00;100289.09;5071968;28;20287;-72
2021/01/19 05:15:14;;;;;;;20.20;16.03;;;;;;;5.02;100.00;100302.63;5052059;28;20183;-72
2021/01/19 05:17:41;;;;;;;19.10;16.33;;;;;;;5.07;100.00;100284.69;5070099;28;20202;-72
2021/01/19 05:20:10;;;;;;;18.53;16.20;;;;;;;5.03;100.00;100283.53;5052939;28;20253;-71
2021/01/19 05:22:35;;;;;;;22.30;16.50;;;;;;;5.14;100.00;100279.13;5069738;28;20214;-72
2021/01/19 05:25:01;;;;;;;20.57;15.73;;;;;;;5.02;100.00;100273.03;5052124;28;20182;-72
2021/01/19 05:27:29;;;;;;;20.50;16.17;;;;;;;5.11;100.00;100271.53;5070932;28;20316;-71
2021/01/19 05:30:04;;;;;;;22.67;18.97;;;;;;;5.02;100.00;100265.78;5053531;28;20211;-71
2021/01/19 05:32:42;;;;;;;30.93;22.27;;;;;;;5.11;100.00;100260.78;5066079;28;20217;-71
2021/01/19 05:35:17;;;;;;;20.80;15.60;;;;;;;5.04;100.00;100258.28;5052093;28;20277;-73
2021/01/19 05:37:57;;;;;;;21.57;16.03;;;;;;;5.20;100.00;100251.22;5037180;28;20178;-72
2021/01/19 05:40:24;;;;;;;20.33;15.23;;;;;;;5.05;100.00;100246.47;5069245;28;20582;-71
2021/01/19 05:42:52;;;;;;;16.97;14.10;;;;;;;5.10;100.00;100240.31;5073054;28;20174;-72
2021/01/19 05:45:20;;;;;;;17.00;14.03;;;;;;;5.11;100.00;100242.78;5088776;28;20204;-72
2021/01/19 05:47:45;;;;;;;22.30;14.90;;;;;;;5.05;100.00;100233.00;5089613;28;20731;-72
2021/01/19 05:50:17;;;;;;;20.43;13.67;;;;;;;5.08;100.00;100227.09;5072342;28;20285;-72
2021/01/19 05:52:43;;;;;;;18.37;14.00;;;;;;;5.03;100.00;100223.53;5052112;28;20219;-72
2021/01/19 05:55:13;;;;;;;16.70;12.87;;;;;;;4.94;100.00;100216.13;5054045;28;20201;-71
2021/01/19 05:57:41;;;;;;;16.77;13.07;;;;;;;5.03;100.00;100218.16;5073484;28;20186;-73
2021/01/19 06:00:10;;;;;;;18.50;13.87;;;;;;;4.91;100.00;100213.91;5057257;28;20182;-73
2021/01/19 06:02:40;;;;;;;16.57;12.10;;;;;;;4.97;100.00;100196.81;5057817;28;20196;-72
2021/01/19 06:05:14;;;;;;;15.47;11.77;;;;;;;4.95;100.00;100198.94;5088923;28;20269;-72
2021/01/19 06:07:43;;;;;;;14.17;11.47;;;;;;;4.93;100.00;100182.19;5056644;28;20185;-72
2021/01/19 06:10:15;;;;;;;18.00;11.63;;;;;;;4.87;100.00;100180.50;5039624;28;20305;-72
2021/01/19 06:12:41;;;;;;;20.80;15.03;;;;;;;4.90;100.00;100177.34;5039117;28;20664;-72
2021/01/19 06:15:08;;;;;;;26.90;17.77;;;;;;;5.01;100.00;100172.66;5048956;28;20197;-72
2021/01/19 06:17:36;;;;;;;16.43;10.60;;;;;;;5.07;100.00;100171.69;5069423;28;20736;-72
2021/01/19 06:20:03;;;;;;;15.10;11.13;;;;;;;4.91;100.00;100166.34;5037374;28;20227;-71
2021/01/19 06:22:29;;;;;;;14.37;11.20;;;;;;;4.95;100.00;100158.59;5052475;28;20258;-72
2021/01/19 06:24:56;;;;;;;18.23;12.47;;;;;;;4.92;100.00;100156.38;5051482;28;20250;-72
2021/01/19 06:27:24;;;;;;;16.67;11.00;;;;;;;4.87;100.00;100143.69;5050946;28;20645;-72
2021/01/19 06:29:59;;;;;;;17.20;10.30;;;;;;;4.84;100.00;100143.34;5052818;28;20226;-71
2021/01/19 06:32:25;;;;;;;14.47;9.60;;;;;;;4.81;100.00;100135.78;5073327;28;20229;-72
2021/01/19 06:34:53;;;;;;;12.43;8.47;;;;;;;4.78;100.00;100123.66;5051945;28;20190;-72
2021/01/19 06:37:26;;;;;;;15.30;8.93;;;;;;;4.73;100.00;100128.13;5059951;28;20234;-72
2021/01/19 06:40:05;;;;;;;11.63;9.07;;;;;;;4.72;100.00;100115.75;5076608;28;20178;-71
2021/01/19 06:42:31;;;;;;;13.63;8.90;;;;;;;4.73;100.00;100109.31;5057011;28;20230;-72
2021/01/19 06:44:58;;;;;;;12.67;8.77;;;;;;;4.74;100.00;100098.31;5039385;28;20663;-72
2021/01/19 06:47:27;;;;;;;10.97;8.20;;;;;;;4.80;100.00;100083.03;5055845;28;20440;-72
2021/01/19 06:49:53;;;;;;;10.47;7.60;;;;;;;4.69;100.00;100090.16;5072784;28;20211;-72
2021/01/19 06:52:19;;;;;;;11.23;7.30;;;;;;;4.75;100.00;100082.97;5056136;28;20265;-72
2021/01/19 06:54:54;;;;;;;8.87;7.37;;;;;;;4.65;100.00;100078.28;5072692;28;20179;-72
2021/01/19 06:57:20;;;;;;;8.50;6.53;;;;;;;4.65;100.00;100075.59;5090568;28;20229;-71
2021/01/19 07:00:08;;;;;;;12.13;7.10;;;;;;;4.57;100.00;100072.50;5092671;28;20308;-72
2021/01/19 07:02:41;;;;;;;9.27;6.53;;;;;;;4.67;100.00;100056.50;5092853;28;20660;-72
2021/01/19 07:05:20;;;;;;;11.57;6.60;;;;;;;4.66;100.00;100060.25;5076083;28;20190;-72
2021/01/19 07:07:54;;;;;;;10.13;6.53;;;;;;;4.49;100.00;100048.75;5076872;28;20186;-72
2021/01/19 07:10:58;;;;;;;9.10;6.07;;;;;;;4.44;100.00;100051.34;5093516;28;20212;-72
2021/01/19 07:13:27;;;;;;;9.30;5.73;;;;;;;4.47;100.00;100045.50;5034832;28;20179;-72
2021/01/19 07:16:08;;;;;;;9.17;5.80;;;;;;;4.50;100.00;100034.22;5064227;28;20248;-72
2021/01/19 07:18:53;;;;;;;7.23;5.37;;;;;;;4.45;100.00;100031.50;5075823;28;20182;-72
2021/01/19 07:21:21;;;;;;;8.60;5.50;;;;;;;4.43;100.00;100038.16;5091663;28;20213;-72
2021/01/19 07:23:46;;;;;;;7.70;5.03;;;;;;;4.53;100.00;100022.19;5059296;28;20182;-72
2021/01/19 07:26:22;;;;;;;9.37;5.40;;;;;;;4.49;100.00;100013.78;5091635;28;20233;-72
2021/01/19 07:28:48;;;;;;;8.40;4.87;;;;;;;4.46;100.00;100018.84;5092526;28;20188;-72
2021/01/19 07:31:20;;;;;;;5.93;3.90;;;;;;;4.32;100.00;100010.34;5092250;28;20274;-73
2021/01/19 07:33:50;;;;;;;5.63;3.17;;;;;;;4.52;100.00;100015.16;5059390;28;20182;-72
2021/01/19 07:36:25;;;;;;;6.33;3.60;;;;;;;4.35;100.00;100007.13;5075531;28;20229;-73
2021/01/19 07:38:51;;;;;;;6.50;3.07;;;;;;;4.33;100.00;100005.78;5060035;28;20243;-72
2021/01/19 07:41:33;;;;;;;6.07;3.20;;;;;;;4.27;100.00;100007.56;5060326;28;20701;-72
2021/01/19 07:44:03;;;;;;;8.67;4.27;;;;;;;4.31;100.00;99989.88;5060536;28;20189;-72
2021/01/19 07:46:29;;;;;;;4.90;3.30;;;;;;;4.24;100.00;99989.25;5076729;28;20249;-72
2021/01/19 07:49:05;;;;;;;8.53;3.23;;;;;;;4.29;100.00;99994.69;5062360;28;20679;-72
2021/01/19 07:51:42;;;;;;;4.50;3.17;;;;;;;4.31;100.00;99991.78;5061413;28;20230;-72
2021/01/19 07:54:08;;;;;;;5.50;2.87;;;;;;;4.27;100.00;99983.38;5061471;28;20564;-73
2021/01/19 07:56:34;;;;;;;6.40;2.70;;;;;;;4.30;100.00;99974.84;5078270;28;20233;-72
2021/01/19 07:58:59;;;;;;;6.13;3.10;;;;;;;4.21;100.00;99965.59;5060693;28;20194;-73
2021/01/19 08:01:29;;;;;;;6.70;2.80;;;;;;;4.34;100.00;99965.22;5075728;28;20274;-72
2021/01/19 08:04:10;;;;;;;5.87;3.00;;;;;;;4.44;100.00;99951.09;5076213;28;20239;-73
2021/01/19 08:06:37;;;;;;;6.97;3.30;;;;;;;4.24;100.00;99954.31;5091262;28;20324;-72
2021/01/19 08:09:09;;;;;;;6.63;2.67;;;;;;;4.30;100.00;99953.34;5076038;28;20185;-72
2021/01/19 08:11:37;;;;;;;15.47;10.00;;;;;;;4.36;100.00;99952.34;5071705;28;20694;-73
2021/01/19 08:14:08;;;;;;;22.00;14.93;;;;;;;4.32;100.00;99943.16;5066277;28;20262;-73
2021/01/19 08:16:37;;;;;;;8.07;3.13;;;;;;;4.48;100.00;99939.56;5063977;28;20948;-73
2021/01/19 08:19:15;;;;;;;5.87;3.20;;;;;;;4.32;100.00;99935.09;5090370;28;20267;-73
2021/01/19 08:21:40;;;;;;;10.90;2.97;;;;;;;4.34;100.00;99935.66;5056711;28;20244;-73
2021/01/19 08:24:09;;;;;;;7.87;3.43;;;;;;;4.35;100.00;99931.88;5090274;28;20185;-73
2021/01/19 08:26:37;;;;;;;4.67;3.00;;;;;;;4.37;100.00;99935.13;5056355;28;20738;-73
2021/01/19 08:29:05;;;;;;;5.10;3.07;;;;;;;4.31;100.00;99913.84;5074536;28;20182;-74
2021/01/19 08:31:36;;;;;;;4.97;2.83;;;;;;;4.37;100.00;99910.94;5073862;28;20233;-74
2021/01/19 08:34:07;;;;;;;5.63;3.07;;;;;;;4.54;100.00;99910.88;5059299;28;20239;-74
2021/01/19 08:36:33;;;;;;;5.87;3.17;;;;;;;4.35;100.00;99906.91;5057702;28;20260;-74
2021/01/19 08:39:00;;;;;;;7.20;3.30;;;;;;;4.50;100.00;99894.44;5091282;28;20714;-73
2021/01/19 08:41:26;;;;;;;5.70;3.13;;;;;;;4.41;100.00;99889.75;5057371;28;20226;-73
2021/01/19 08:44:02;;;;;;;6.97;3.20;;;;;;;4.44;100.00;99883.88;5074143;28;20178;-74
2021/01/19 08:46:31;;;;;;;5.73;3.20;;;;;;;4.75;100.00;99881.28;5039863;28;20286;-73
2021/01/19 08:49:04;;;;;;;6.27;3.33;;;;;;;4.58;100.00;99869.81;5091170;28;20588;-73
2021/01/19 08:51:32;;;;;;;5.03;2.80;;;;;;;4.67;100.00;99868.25;5056811;28;20226;-73
2021/01/19 08:53:58;;;;;;;6.00;2.80;;;;;;;4.52;100.00;99865.41;5090437;28;20699;-73
2021/01/19 08:56:25;;;;;;;6.17;3.00;;;;;;;4.59;100.00;99863.34;5089703;28;20253;-73
2021/01/19 08:58:51;;;;;;;4.53;2.93;;;;;;;4.65;100.00;99863.16;5107945;28;20686;-73
2021/01/19 09:01:17;;;;;;;5.43;2.70;;;;;;;4.49;100.00;99855.19;5056641;28;20297;-73
2021/01/19 09:03:55;;;;;;;5.77;2.87;;;;;;;4.59;100.00;99849.91;5091012;28;20187;-73
2021/01/19 09:06:23;;;;;;;5.10;3.00;;;;;;;4.59;100.00;99849.91;5106301;28;20221;-73
2021/01/19 09:08:56;;;;;;;4.17;2.50;;;;;;;4.59;100.00;99836.47;5074106;28;20189;-73
2021/01/19 09:11:32;;;;;;;5.53;2.60;;;;;;;4.64;100.00;99839.22;5073609;28;20230;-72
2021/01/19 09:14:01;;;;;;;5.50;2.57;;;;;;;4.71;100.00;99839.81;5057118;28;20178;-73
2021/01/19 09:16:26;;;;;;;4.80;2.13;;;;;;;4.63;100.00;99834.88;5089752;28;20672;-73
2021/01/19 09:18:58;;;;;;;4.17;2.50;;;;;;;4.64;100.00;99833.84;5057008;28;20179;-73
2021/01/19 09:21:25;;;;;;;5.90;2.00;;;;;;;4.72;100.00;99822.59;5056602;28;20229;-73
2021/01/19 09:23:55;;;;;;;5.00;2.20;;;;;;;4.65;100.00;99828.22;5074229;28;20227;-74
2021/01/19 09:26:25;;;;;;;3.27;2.03;;;;;;;4.67;100.00;99819.88;5073107;28;20218;-73
2021/01/19 09:28:53;;;;;;;3.67;2.00;;;;;;;4.71;100.00;99815.63;5091668;28;20170;-73
2021/01/19 09:31:25;;;;;;;6.43;2.10;;;;;;;4.81;100.00;99804.94;5073579;28;20237;-73
2021/01/19 09:33:58;;;;;;;4.40;2.03;;;;;;;4.89;100.00;99804.47;5058355;28;20182;-73
2021/01/19 09:36:24;;;;;;;3.97;1.97;;;;;;;4.81;100.00;99804.94;5040963;28;20232;-73
2021/01/19 09:38:51;;;;;;;3.47;2.13;;;;;;;4.81;100.00;99800.38;5074345;28;20174;-73
2021/01/19 09:41:26;;;;;;;3.97;1.93;;;;;;;4.70;100.00;99789.78;5090133;28;20210;-73
2021/01/19 09:43:56;;;;;;;3.17;1.63;;;;;;;4.67;100.00;99787.59;5057791;28;20258;-74
2021/01/19 09:46:24;;;;;;;2.57;1.83;;;;;;;4.77;100.00;99783.13;5055652;28;20218;-73
2021/01/19 09:48:50;;;;;;;3.43;1.90;;;;;;;4.82;100.00;99782.38;5040208;28;20239;-71
2021/01/19 09:51:26;;;;;;;3.07;1.90;;;;;;;4.83;100.00;99781.28;5055746;28;20262;-72
2021/01/19 09:53:57;;;;;;;2.80;1.80;;;;;;;4.77;100.00;99776.94;5053276;28;20212;-72
2021/01/19 09:56:26;;;;;;;2.40;1.80;;;;;;;4.88;100.00;99773.28;5052564;28;20276;-72
2021/01/19 09:59:04;;;;;;;2.87;1.60;;;;;;;4.99;100.00;99768.50;5070115;28;20189;-72
2021/01/19 10:01:32;;;;;;;2.97;1.70;;;;;;;4.88;100.00;99763.31;5036353;28;20309;-72
2021/01/19 10:04:00;;;;;;;2.73;1.93;;;;;;;4.88;100.00;99767.91;5036728;28;20187;-73
2021/01/19 10:06:26;;;;;;;2.73;2.00;;;;;;;4.87;100.00;99759.03;5038135;28;20236;-72
2021/01/19 10:08:55;;;;;;;4.20;1.83;;;;;;;4.97;100.00;99744.84;5057275;28;20183;-72
2021/01/19 10:11:38;;;;;;;1.90;1.50;;;;;;;4.92;100.00;99752.84;5057415;28;20227;-72
2021/01/19 10:14:14;;;;;;;3.10;1.70;;;;;;;4.90;100.00;99738.84;5040710;28;20640;-72
2021/01/19 10:16:48;;;;;;;2.73;1.60;;;;;;;4.86;100.00;99735.06;5056026;28;20302;-72
2021/01/19 10:19:21;;;;;;;3.03;2.73;;;;;;;4.95;100.00;99733.53;5057046;28;20185;-72
2021/01/19 10:21:55;;;;;;;2.10;1.90;;;;;;;4.97;100.00;99708.78;5056922;28;20684;-72
2021/01/19 10:24:21;;;;;;;2.20;1.67;;;;;;;5.01;100.00;99715.25;5057015;28;20186;-72
2021/01/19 10:26:59;;;;;;;3.10;1.70;;;;;;;5.00;100.00;99713.66;5089836;28;20211;-71
2021/01/19 10:29:26;;;;;;;3.73;2.13;;;;;;;4.95;100.00;99702.03;5040680;28;20217;-73
2021/01/19 10:32:00;;;;;;;16.27;10.80;;;;;;;5.07;100.00;99703.47;5039804;28;20625;-72
2021/01/19 10:34:27;;;;;;;2.60;2.00;;;;;;;5.04;100.00;99703.97;5056813;28;20195;-72
2021/01/19 10:36:54;;;;;;;3.07;1.80;;;;;;;5.03;100.00;99691.59;5055456;28;20227;-72
2021/01/19 10:39:22;;;;;;;3.67;2.03;;;;;;;5.18;100.00;99689.00;5074525;28;20175;-72
2021/01/19 10:41:50;;;;;;;1.90;1.70;;;;;;;4.94;100.00;99691.53;5073867;28;20261;-72
2021/01/19 10:44:18;;;;;;;2.60;2.20;;;;;;;5.15;100.00;99686.81;5056348;28;20571;-72
2021/01/19 10:46:44;;;;;;;1.93;1.63;;;;;;;5.15;100.00;99667.19;5072557;28;20666;-72
2021/01/19 10:49:15;;;;;;;1.53;1.43;;;;;;;5.12;100.00;99655.06;5057162;28;20236;-72
2021/01/19 10:51:46;;;;;;;1.87;1.77;;;;;;;5.04;100.00;99669.00;5089166;28;20704;-73
2021/01/19 10:54:16;;;;;;;3.33;1.93;;;;;;;5.21;100.00;99660.75;5089747;28;20179;-72
2021/01/19 10:56:47;;;;;;;1.97;1.43;;;;;;;5.23;100.00;99653.22;5056012;28;20306;-73
2021/01/19 10:59:15;;;;;;;1.30;1.20;;;;;;;5.14;100.00;99655.59;5055509;28;20198;-72
2021/01/19 11:01:43;;;;;;;1.93;1.60;;;;;;;5.23;100.00;99642.47;5088007;28;20958;-72
2021/01/19 11:04:09;;;;;;;1.60;1.40;;;;;;;5.21;100.00;99645.41;5072314;28;20179;-72
2021/01/19 11:06:35;;;;;;;2.33;1.40;;;;;;;5.18;100.00;99629.81;5087889;28;20584;-72
2021/01/19 11:09:04;;;;;;;2.67;1.90;;;;;;;5.18;100.00;99624.44;5055005;28;20190;-72
2021/01/19 11:11:33;;;;;;;6.53;4.40;;;;;;;5.23;100.00;99627.13;5070710;28;20230;-72
2021/01/19 11:14:03;;;;;;;10.13;5.20;;;;;;;5.19;100.00;99636.00;5071145;28;20175;-72
2021/01/19 11:16:34;;;;;;;4.37;3.97;;;;;;;5.25;100.00;99616.91;5070035;28;20711;-72
2021/01/19 11:19:02;;;;;;;3.40;3.20;;;;;;;5.17;100.00;99614.72;5087927;28;20179;-73
2021/01/19 11:21:33;;;;;;;3.00;2.80;;;;;;;5.14;100.00;99612.53;5070840;28;20259;-72
2021/01/19 11:24:00;;;;;;;3.37;2.20;;;;;;;5.14;100.00;99622.50;5071328;28;20186;-72
2021/01/19 11:26:25;;;;;;;3.17;1.90;;;;;;;5.18;100.00;99607.44;5069893;28;20241;-72
2021/01/19 11:28:51;;;;;;;1.90;1.80;;;;;;;5.16;100.00;99601.53;5054680;28;20739;-72
2021/01/19 11:31:28;;;;;;;1.50;1.40;;;;;;;5.17;100.00;99601.25;5053459;28;20242;-72